sensor_id;sensor_type;location;lat;lon;timestamp;P1;durP1;ratioP1;P2;durP2;ratioP2
15295;SDS011;7749;49.964;7.890;2024-01-10T00:01:19;11.20;;;10.10;;
15295;SDS011;7749;49.964;7.890;2024-01-10T00:03:48;11.63;;;9.60;;
15295;SDS011;7749;49.964;7.890;2024-01-10T00:06:15;11.00;;;9.77;;
15295;SDS011;7749;49.964;7.890;2024-01-10T00:08:43;10.27;;;9.17;;
15295;SDS011;7749;49.964;7.890;2024-01-10T00:11:10;10.60;;;9.20;;
15295;SDS011;7749;49.964;7.890;2024-01-10T00:13:38;12.53;;;9.67;;
15295;SDS011;7749;49.964;7.890;2024-01-10T00:16:05;11.33;;;10.13;;
15295;SDS011;7749;49.964;7.890;2024-01-10T00:18:33;10.77;;;9.37;;
15295;SDS011;7749;49.964;7.890;2024-01-10T00:21:01;10.70;;;9.50;;
15295;SDS011;7749;49.964;7.890;2024-01-10T00:23:29;11.30;;;9.93;;
15295;SDS011;7749;49.964;7.890;2024-01-10T00:25:56;10.63;;;9.53;;
15295;SDS011;7749;49.964;7.890;2024-01-10T00:28:24;12.07;;;10.27;;
15295;SDS011;7749;49.964;7.890;2024-01-10T00:30:52;11.97;;;9.70;;
15295;SDS011;7749;49.964;7.890;2024-01-10T00:33:19;11.27;;;10.07;;
15295;SDS011;7749;49.964;7.890;2024-01-10T00:35:47;11.67;;;10.23;;
15295;SDS011;7749;49.964;7.890;2024-01-10T00:38:14;11.30;;;10.00;;
15295;SDS011;7749;49.964;7.890;2024-01-10T00:40:42;11.17;;;9.90;;
15295;SDS011;7749;49.964;7.890;2024-01-10T00:43:09;11.17;;;9.50;;
15295;SDS011;7749;49.964;7.890;2024-01-10T00:45:36;11.03;;;9.80;;
15295;SDS011;7749;49.964;7.890;2024-01-10T00:48:04;11.33;;;9.93;;
15295;SDS011;7749;49.964;7.890;2024-01-10T00:50:31;11.73;;;10.10;;
15295;SDS011;7749;49.964;7.890;2024-01-10T00:52:59;12.50;;;10.10;;
15295;SDS011;7749;49.964;7.890;2024-01-10T00:55:27;11.73;;;10.07;;
15295;SDS011;7749;49.964;7.890;2024-01-10T00:57:55;11.27;;;10.07;;
15295;SDS011;7749;49.964;7.890;2024-01-10T01:00:22;13.63;;;10.50;;
15295;SDS011;7749;49.964;7.890;2024-01-10T01:02:50;12.57;;;9.83;;
15295;SDS011;7749;49.964;7.890;2024-01-10T01:05:17;10.97;;;9.37;;
15295;SDS011;7749;49.964;7.890;2024-01-10T01:07:45;11.77;;;10.03;;
15295;SDS011;7749;49.964;7.890;2024-01-10T01:10:12;11.10;;;9.80;;
15295;SDS011;7749;49.964;7.890;2024-01-10T01:12:40;11.70;;;10.20;;
15295;SDS011;7749;49.964;7.890;2024-01-10T01:15:07;11.63;;;10.10;;
15295;SDS011;7749;49.964;7.890;2024-01-10T01:17:35;11.77;;;10.57;;
15295;SDS011;7749;49.964;7.890;2024-01-10T01:20:02;11.37;;;10.07;;
15295;SDS011;7749;49.964;7.890;2024-01-10T01:22:33;11.20;;;10.00;;
15295;SDS011;7749;49.964;7.890;2024-01-10T01:25:00;11.37;;;10.00;;
15295;SDS011;7749;49.964;7.890;2024-01-10T01:27:28;12.27;;;10.17;;
15295;SDS011;7749;49.964;7.890;2024-01-10T01:29:55;12.57;;;10.47;;
15295;SDS011;7749;49.964;7.890;2024-01-10T01:32:23;11.80;;;10.57;;
15295;SDS011;7749;49.964;7.890;2024-01-10T01:34:50;10.80;;;9.70;;
15295;SDS011;7749;49.964;7.890;2024-01-10T01:37:18;12.23;;;10.57;;
15295;SDS011;7749;49.964;7.890;2024-01-10T01:39:45;11.60;;;10.43;;
15295;SDS011;7749;49.964;7.890;2024-01-10T01:42:12;13.30;;;11.37;;
15295;SDS011;7749;49.964;7.890;2024-01-10T01:44:40;12.77;;;10.43;;
15295;SDS011;7749;49.964;7.890;2024-01-10T01:47:07;13.37;;;10.80;;
15295;SDS011;7749;49.964;7.890;2024-01-10T01:49:35;12.60;;;10.87;;
15295;SDS011;7749;49.964;7.890;2024-01-10T01:52:03;11.37;;;10.07;;
15295;SDS011;7749;49.964;7.890;2024-01-10T01:54:31;12.10;;;10.80;;
15295;SDS011;7749;49.964;7.890;2024-01-10T01:57:00;12.77;;;11.17;;
15295;SDS011;7749;49.964;7.890;2024-01-10T01:59:28;14.10;;;11.93;;
15295;SDS011;7749;49.964;7.890;2024-01-10T02:01:56;12.57;;;10.10;;
15295;SDS011;7749;49.964;7.890;2024-01-10T02:04:27;12.77;;;11.27;;
15295;SDS011;7749;49.964;7.890;2024-01-10T02:06:57;14.00;;;12.17;;
15295;SDS011;7749;49.964;7.890;2024-01-10T02:09:24;13.03;;;11.63;;
15295;SDS011;7749;49.964;7.890;2024-01-10T02:11:52;12.27;;;10.37;;
15295;SDS011;7749;49.964;7.890;2024-01-10T02:14:20;13.87;;;12.17;;
15295;SDS011;7749;49.964;7.890;2024-01-10T02:16:48;14.47;;;12.87;;
15295;SDS011;7749;49.964;7.890;2024-01-10T02:19:19;14.33;;;12.47;;
15295;SDS011;7749;49.964;7.890;2024-01-10T02:21:47;16.43;;;12.27;;
15295;SDS011;7749;49.964;7.890;2024-01-10T02:24:15;14.97;;;12.60;;
15295;SDS011;7749;49.964;7.890;2024-01-10T02:26:42;13.47;;;11.83;;
15295;SDS011;7749;49.964;7.890;2024-01-10T02:29:10;13.90;;;12.13;;
15295;SDS011;7749;49.964;7.890;2024-01-10T02:31:37;13.50;;;12.03;;
15295;SDS011;7749;49.964;7.890;2024-01-10T02:34:05;16.97;;;14.37;;
15295;SDS011;7749;49.964;7.890;2024-01-10T02:36:32;13.00;;;11.30;;
15295;SDS011;7749;49.964;7.890;2024-01-10T02:38:59;12.97;;;11.60;;
15295;SDS011;7749;49.964;7.890;2024-01-10T02:41:27;14.17;;;12.33;;
15295;SDS011;7749;49.964;7.890;2024-01-10T02:43:55;15.33;;;13.37;;
15295;SDS011;7749;49.964;7.890;2024-01-10T02:46:25;17.80;;;14.73;;
15295;SDS011;7749;49.964;7.890;2024-01-10T02:48:56;14.40;;;12.90;;
15295;SDS011;7749;49.964;7.890;2024-01-10T02:51:26;15.23;;;13.53;;
15295;SDS011;7749;49.964;7.890;2024-01-10T02:53:54;13.30;;;11.87;;
15295;SDS011;7749;49.964;7.890;2024-01-10T02:56:21;13.40;;;11.83;;
15295;SDS011;7749;49.964;7.890;2024-01-10T02:58:49;15.37;;;11.80;;
15295;SDS011;7749;49.964;7.890;2024-01-10T03:01:16;13.93;;;12.30;;
15295;SDS011;7749;49.964;7.890;2024-01-10T03:03:44;15.10;;;12.77;;
15295;SDS011;7749;49.964;7.890;2024-01-10T03:06:11;14.50;;;12.33;;
15295;SDS011;7749;49.964;7.890;2024-01-10T03:08:39;14.53;;;12.33;;
15295;SDS011;7749;49.964;7.890;2024-01-10T03:11:06;13.60;;;12.00;;
15295;SDS011;7749;49.964;7.890;2024-01-10T03:13:34;14.83;;;12.33;;
15295;SDS011;7749;49.964;7.890;2024-01-10T03:16:01;15.33;;;13.27;;
15295;SDS011;7749;49.964;7.890;2024-01-10T03:18:29;16.27;;;13.03;;
15295;SDS011;7749;49.964;7.890;2024-01-10T03:20:56;24.27;;;13.27;;
15295;SDS011;7749;49.964;7.890;2024-01-10T03:23:24;14.07;;;11.53;;
15295;SDS011;7749;49.964;7.890;2024-01-10T03:25:51;13.80;;;11.07;;
15295;SDS011;7749;49.964;7.890;2024-01-10T03:28:18;13.97;;;12.07;;
15295;SDS011;7749;49.964;7.890;2024-01-10T03:30:46;15.10;;;12.60;;
15295;SDS011;7749;49.964;7.890;2024-01-10T03:33:13;16.70;;;12.60;;
15295;SDS011;7749;49.964;7.890;2024-01-10T03:35:43;13.67;;;12.10;;
15295;SDS011;7749;49.964;7.890;2024-01-10T03:38:10;14.73;;;11.87;;
15295;SDS011;7749;49.964;7.890;2024-01-10T03:40:38;13.33;;;11.43;;
15295;SDS011;7749;49.964;7.890;2024-01-10T03:43:05;15.80;;;12.23;;
15295;SDS011;7749;49.964;7.890;2024-01-10T03:45:33;15.07;;;11.60;;
15295;SDS011;7749;49.964;7.890;2024-01-10T03:48:00;13.93;;;12.03;;
15295;SDS011;7749;49.964;7.890;2024-01-10T03:50:28;15.23;;;12.30;;
15295;SDS011;7749;49.964;7.890;2024-01-10T03:52:56;15.50;;;12.90;;
15295;SDS011;7749;49.964;7.890;2024-01-10T03:55:23;15.93;;;13.17;;
15295;SDS011;7749;49.964;7.890;2024-01-10T03:57:50;16.47;;;13.33;;
15295;SDS011;7749;49.964;7.890;2024-01-10T04:00:19;15.90;;;14.20;;
15295;SDS011;7749;49.964;7.890;2024-01-10T04:02:47;15.17;;;13.30;;
15295;SDS011;7749;49.964;7.890;2024-01-10T04:05:17;16.47;;;14.17;;
15295;SDS011;7749;49.964;7.890;2024-01-10T04:07:45;14.93;;;13.33;;
15295;SDS011;7749;49.964;7.890;2024-01-10T04:10:13;18.83;;;14.53;;
15295;SDS011;7749;49.964;7.890;2024-01-10T04:12:42;17.53;;;14.60;;
15295;SDS011;7749;49.964;7.890;2024-01-10T04:15:10;16.50;;;13.87;;
15295;SDS011;7749;49.964;7.890;2024-01-10T04:17:38;17.13;;;14.20;;
15295;SDS011;7749;49.964;7.890;2024-01-10T04:20:06;17.23;;;15.27;;
15295;SDS011;7749;49.964;7.890;2024-01-10T04:22:34;17.63;;;14.90;;
15295;SDS011;7749;49.964;7.890;2024-01-10T04:25:03;18.50;;;15.53;;
15295;SDS011;7749;49.964;7.890;2024-01-10T04:27:33;17.97;;;15.47;;
15295;SDS011;7749;49.964;7.890;2024-01-10T04:30:00;17.87;;;14.87;;
15295;SDS011;7749;49.964;7.890;2024-01-10T04:32:27;18.60;;;15.77;;
15295;SDS011;7749;49.964;7.890;2024-01-10T04:34:55;19.37;;;16.37;;
15295;SDS011;7749;49.964;7.890;2024-01-10T04:37:22;20.17;;;16.00;;
15295;SDS011;7749;49.964;7.890;2024-01-10T04:39:50;19.57;;;16.10;;
15295;SDS011;7749;49.964;7.890;2024-01-10T04:42:17;18.33;;;15.80;;
15295;SDS011;7749;49.964;7.890;2024-01-10T04:44:44;19.40;;;16.30;;
15295;SDS011;7749;49.964;7.890;2024-01-10T04:47:12;18.03;;;15.23;;
15295;SDS011;7749;49.964;7.890;2024-01-10T04:49:39;19.43;;;16.23;;
15295;SDS011;7749;49.964;7.890;2024-01-10T04:52:07;27.33;;;16.67;;
15295;SDS011;7749;49.964;7.890;2024-01-10T04:54:35;18.83;;;16.00;;
15295;SDS011;7749;49.964;7.890;2024-01-10T04:57:02;19.77;;;17.67;;
15295;SDS011;7749;49.964;7.890;2024-01-10T04:59:29;19.07;;;15.80;;
15295;SDS011;7749;49.964;7.890;2024-01-10T05:01:57;20.20;;;16.27;;
15295;SDS011;7749;49.964;7.890;2024-01-10T05:04:24;18.60;;;16.17;;
15295;SDS011;7749;49.964;7.890;2024-01-10T05:06:52;19.40;;;16.50;;
15295;SDS011;7749;49.964;7.890;2024-01-10T05:09:19;19.90;;;16.73;;
15295;SDS011;7749;49.964;7.890;2024-01-10T05:11:46;19.77;;;16.70;;
15295;SDS011;7749;49.964;7.890;2024-01-10T05:14:17;20.77;;;15.87;;
15295;SDS011;7749;49.964;7.890;2024-01-10T05:16:48;20.33;;;16.43;;
15295;SDS011;7749;49.964;7.890;2024-01-10T05:19:16;19.83;;;16.27;;
15295;SDS011;7749;49.964;7.890;2024-01-10T05:21:43;20.93;;;17.00;;
15295;SDS011;7749;49.964;7.890;2024-01-10T05:24:11;21.80;;;18.13;;
15295;SDS011;7749;49.964;7.890;2024-01-10T05:26:39;21.47;;;17.47;;
15295;SDS011;7749;49.964;7.890;2024-01-10T05:29:06;20.53;;;18.23;;
15295;SDS011;7749;49.964;7.890;2024-01-10T05:31:34;24.33;;;20.07;;
15295;SDS011;7749;49.964;7.890;2024-01-10T05:34:02;19.83;;;17.70;;
15295;SDS011;7749;49.964;7.890;2024-01-10T05:36:29;20.97;;;18.07;;
15295;SDS011;7749;49.964;7.890;2024-01-10T05:38:56;22.47;;;18.77;;
15295;SDS011;7749;49.964;7.890;2024-01-10T05:41:24;22.57;;;19.10;;
15295;SDS011;7749;49.964;7.890;2024-01-10T05:43:51;25.90;;;19.90;;
15295;SDS011;7749;49.964;7.890;2024-01-10T05:46:19;23.93;;;18.17;;
15295;SDS011;7749;49.964;7.890;2024-01-10T05:48:46;24.27;;;18.33;;
15295;SDS011;7749;49.964;7.890;2024-01-10T05:51:15;22.00;;;17.17;;
15295;SDS011;7749;49.964;7.890;2024-01-10T05:53:42;21.17;;;17.60;;
15295;SDS011;7749;49.964;7.890;2024-01-10T05:56:10;20.43;;;18.23;;
15295;SDS011;7749;49.964;7.890;2024-01-10T05:58:39;21.30;;;18.17;;
15295;SDS011;7749;49.964;7.890;2024-01-10T06:01:06;22.10;;;18.73;;
15295;SDS011;7749;49.964;7.890;2024-01-10T06:03:37;21.50;;;17.83;;
15295;SDS011;7749;49.964;7.890;2024-01-10T06:06:06;24.53;;;19.37;;
15295;SDS011;7749;49.964;7.890;2024-01-10T06:08:33;20.43;;;18.07;;
15295;SDS011;7749;49.964;7.890;2024-01-10T06:11:03;23.47;;;18.70;;
15295;SDS011;7749;49.964;7.890;2024-01-10T06:13:36;24.03;;;19.30;;
15295;SDS011;7749;49.964;7.890;2024-01-10T06:16:20;21.40;;;17.67;;
15295;SDS011;7749;49.964;7.890;2024-01-10T06:18:47;23.10;;;19.17;;
15295;SDS011;7749;49.964;7.890;2024-01-10T06:21:16;20.70;;;18.20;;
15295;SDS011;7749;49.964;7.890;2024-01-10T06:23:43;21.37;;;17.77;;
15295;SDS011;7749;49.964;7.890;2024-01-10T06:26:10;22.83;;;19.00;;
15295;SDS011;7749;49.964;7.890;2024-01-10T06:28:38;21.57;;;18.77;;
15295;SDS011;7749;49.964;7.890;2024-01-10T06:31:06;23.03;;;18.33;;
15295;SDS011;7749;49.964;7.890;2024-01-10T06:33:37;22.57;;;18.93;;
15295;SDS011;7749;49.964;7.890;2024-01-10T06:36:05;24.07;;;19.17;;
15295;SDS011;7749;49.964;7.890;2024-01-10T06:38:32;23.17;;;20.03;;
15295;SDS011;7749;49.964;7.890;2024-01-10T06:41:00;25.23;;;20.67;;
15295;SDS011;7749;49.964;7.890;2024-01-10T06:43:27;21.03;;;18.27;;
15295;SDS011;7749;49.964;7.890;2024-01-10T06:45:55;24.17;;;19.97;;
15295;SDS011;7749;49.964;7.890;2024-01-10T06:48:23;25.30;;;20.80;;
15295;SDS011;7749;49.964;7.890;2024-01-10T06:50:51;22.30;;;19.50;;
15295;SDS011;7749;49.964;7.890;2024-01-10T06:53:18;22.37;;;19.30;;
15295;SDS011;7749;49.964;7.890;2024-01-10T06:55:46;23.70;;;20.37;;
15295;SDS011;7749;49.964;7.890;2024-01-10T06:58:13;24.00;;;20.00;;
15295;SDS011;7749;49.964;7.890;2024-01-10T07:00:40;22.27;;;18.50;;
15295;SDS011;7749;49.964;7.890;2024-01-10T07:03:08;21.93;;;19.07;;
15295;SDS011;7749;49.964;7.890;2024-01-10T07:05:35;22.80;;;18.93;;
15295;SDS011;7749;49.964;7.890;2024-01-10T07:08:03;22.03;;;19.40;;
15295;SDS011;7749;49.964;7.890;2024-01-10T07:10:31;24.70;;;19.63;;
15295;SDS011;7749;49.964;7.890;2024-01-10T07:12:58;22.50;;;19.13;;
15295;SDS011;7749;49.964;7.890;2024-01-10T07:15:25;24.67;;;20.83;;
15295;SDS011;7749;49.964;7.890;2024-01-10T07:17:53;22.37;;;19.37;;
15295;SDS011;7749;49.964;7.890;2024-01-10T07:20:21;24.10;;;20.03;;
15295;SDS011;7749;49.964;7.890;2024-01-10T07:22:51;24.07;;;20.53;;
15295;SDS011;7749;49.964;7.890;2024-01-10T07:25:18;25.33;;;20.67;;
15295;SDS011;7749;49.964;7.890;2024-01-10T07:27:46;22.90;;;19.53;;
15295;SDS011;7749;49.964;7.890;2024-01-10T07:30:13;23.30;;;19.43;;
15295;SDS011;7749;49.964;7.890;2024-01-10T07:32:44;23.00;;;19.40;;
15295;SDS011;7749;49.964;7.890;2024-01-10T07:35:15;22.87;;;19.60;;
15295;SDS011;7749;49.964;7.890;2024-01-10T07:37:43;25.10;;;20.27;;
15295;SDS011;7749;49.964;7.890;2024-01-10T07:40:11;23.00;;;19.57;;
15295;SDS011;7749;49.964;7.890;2024-01-10T07:42:40;23.50;;;18.83;;
15295;SDS011;7749;49.964;7.890;2024-01-10T07:45:08;24.20;;;19.60;;
15295;SDS011;7749;49.964;7.890;2024-01-10T07:47:35;21.17;;;18.70;;
15295;SDS011;7749;49.964;7.890;2024-01-10T07:50:06;23.90;;;19.27;;
15295;SDS011;7749;49.964;7.890;2024-01-10T07:52:35;22.17;;;19.30;;
15295;SDS011;7749;49.964;7.890;2024-01-10T07:55:03;24.40;;;20.50;;
15295;SDS011;7749;49.964;7.890;2024-01-10T07:57:35;23.50;;;19.37;;
15295;SDS011;7749;49.964;7.890;2024-01-10T08:00:09;25.23;;;21.20;;
15295;SDS011;7749;49.964;7.890;2024-01-10T08:02:38;26.93;;;21.80;;
15295;SDS011;7749;49.964;7.890;2024-01-10T08:05:06;27.47;;;21.83;;
15295;SDS011;7749;49.964;7.890;2024-01-10T08:07:39;26.20;;;21.43;;
15295;SDS011;7749;49.964;7.890;2024-01-10T08:10:07;25.30;;;21.70;;
15295;SDS011;7749;49.964;7.890;2024-01-10T08:12:40;25.53;;;20.47;;
15295;SDS011;7749;49.964;7.890;2024-01-10T08:15:12;25.93;;;21.40;;
15295;SDS011;7749;49.964;7.890;2024-01-10T08:17:41;25.20;;;20.60;;
15295;SDS011;7749;49.964;7.890;2024-01-10T08:20:10;25.27;;;21.00;;
15295;SDS011;7749;49.964;7.890;2024-01-10T08:22:38;24.77;;;20.67;;
15295;SDS011;7749;49.964;7.890;2024-01-10T08:25:07;25.13;;;20.80;;
15295;SDS011;7749;49.964;7.890;2024-01-10T08:27:35;25.27;;;21.97;;
15295;SDS011;7749;49.964;7.890;2024-01-10T08:30:02;25.83;;;22.13;;
15295;SDS011;7749;49.964;7.890;2024-01-10T08:32:37;28.20;;;21.77;;
15295;SDS011;7749;49.964;7.890;2024-01-10T08:35:05;26.70;;;21.33;;
15295;SDS011;7749;49.964;7.890;2024-01-10T08:37:36;28.83;;;21.83;;
15295;SDS011;7749;49.964;7.890;2024-01-10T08:40:04;24.33;;;20.23;;
15295;SDS011;7749;49.964;7.890;2024-01-10T08:42:38;28.13;;;21.47;;
15295;SDS011;7749;49.964;7.890;2024-01-10T08:45:06;29.60;;;21.23;;
15295;SDS011;7749;49.964;7.890;2024-01-10T08:47:36;25.90;;;21.37;;
15295;SDS011;7749;49.964;7.890;2024-01-10T08:50:04;27.73;;;21.57;;
15295;SDS011;7749;49.964;7.890;2024-01-10T08:52:35;27.40;;;21.83;;
15295;SDS011;7749;49.964;7.890;2024-01-10T08:55:06;26.57;;;21.20;;
15295;SDS011;7749;49.964;7.890;2024-01-10T08:57:39;24.80;;;21.40;;
15295;SDS011;7749;49.964;7.890;2024-01-10T09:00:07;30.53;;;22.03;;
15295;SDS011;7749;49.964;7.890;2024-01-10T09:02:38;25.60;;;21.67;;
15295;SDS011;7749;49.964;7.890;2024-01-10T09:05:06;27.60;;;22.10;;
15295;SDS011;7749;49.964;7.890;2024-01-10T09:07:36;27.90;;;21.63;;
15295;SDS011;7749;49.964;7.890;2024-01-10T09:10:05;25.23;;;21.13;;
15295;SDS011;7749;49.964;7.890;2024-01-10T09:12:34;27.30;;;21.93;;
15295;SDS011;7749;49.964;7.890;2024-01-10T09:15:02;28.77;;;22.13;;
15295;SDS011;7749;49.964;7.890;2024-01-10T09:17:30;23.30;;;19.73;;
15295;SDS011;7749;49.964;7.890;2024-01-10T09:19:57;27.00;;;19.47;;
15295;SDS011;7749;49.964;7.890;2024-01-10T09:22:25;26.23;;;19.57;;
15295;SDS011;7749;49.964;7.890;2024-01-10T09:24:52;28.33;;;19.37;;
15295;SDS011;7749;49.964;7.890;2024-01-10T09:27:19;27.87;;;19.10;;
15295;SDS011;7749;49.964;7.890;2024-01-10T09:29:47;27.07;;;19.53;;
15295;SDS011;7749;49.964;7.890;2024-01-10T09:32:14;27.43;;;19.53;;
15295;SDS011;7749;49.964;7.890;2024-01-10T09:34:42;24.77;;;19.43;;
15295;SDS011;7749;49.964;7.890;2024-01-10T09:37:09;29.70;;;22.13;;
15295;SDS011;7749;49.964;7.890;2024-01-10T09:39:36;26.27;;;18.43;;
15295;SDS011;7749;49.964;7.890;2024-01-10T09:42:04;24.90;;;18.27;;
15295;SDS011;7749;49.964;7.890;2024-01-10T09:44:33;24.50;;;19.73;;
15295;SDS011;7749;49.964;7.890;2024-01-10T09:47:01;24.03;;;18.80;;
15295;SDS011;7749;49.964;7.890;2024-01-10T09:49:29;26.37;;;19.57;;
15295;SDS011;7749;49.964;7.890;2024-01-10T09:51:59;24.57;;;19.63;;
15295;SDS011;7749;49.964;7.890;2024-01-10T09:54:31;23.93;;;19.00;;
15295;SDS011;7749;49.964;7.890;2024-01-10T09:57:01;26.63;;;19.57;;
15295;SDS011;7749;49.964;7.890;2024-01-10T09:59:28;24.33;;;18.53;;
15295;SDS011;7749;49.964;7.890;2024-01-10T10:01:56;25.40;;;19.30;;
15295;SDS011;7749;49.964;7.890;2024-01-10T10:04:27;26.07;;;19.77;;
15295;SDS011;7749;49.964;7.890;2024-01-10T10:06:58;25.30;;;19.07;;
15295;SDS011;7749;49.964;7.890;2024-01-10T10:09:28;24.53;;;18.33;;
15295;SDS011;7749;49.964;7.890;2024-01-10T10:11:59;26.00;;;19.33;;
15295;SDS011;7749;49.964;7.890;2024-01-10T10:14:28;22.50;;;18.30;;
15295;SDS011;7749;49.964;7.890;2024-01-10T10:17:06;21.93;;;17.90;;
15295;SDS011;7749;49.964;7.890;2024-01-10T10:19:41;22.07;;;17.60;;
15295;SDS011;7749;49.964;7.890;2024-01-10T10:22:11;27.13;;;17.60;;
15295;SDS011;7749;49.964;7.890;2024-01-10T10:24:38;25.73;;;17.57;;
15295;SDS011;7749;49.964;7.890;2024-01-10T10:27:11;22.03;;;16.83;;
15295;SDS011;7749;49.964;7.890;2024-01-10T10:29:40;27.00;;;16.83;;
15295;SDS011;7749;49.964;7.890;2024-01-10T10:32:07;24.67;;;17.67;;
15295;SDS011;7749;49.964;7.890;2024-01-10T10:34:35;22.20;;;16.10;;
15295;SDS011;7749;49.964;7.890;2024-01-10T10:37:03;26.67;;;17.10;;
15295;SDS011;7749;49.964;7.890;2024-01-10T10:39:31;36.60;;;20.63;;
15295;SDS011;7749;49.964;7.890;2024-01-10T10:41:58;26.97;;;16.63;;
15295;SDS011;7749;49.964;7.890;2024-01-10T10:44:27;24.70;;;16.37;;
15295;SDS011;7749;49.964;7.890;2024-01-10T10:46:58;24.53;;;16.80;;
15295;SDS011;7749;49.964;7.890;2024-01-10T10:49:41;24.90;;;16.03;;
15295;SDS011;7749;49.964;7.890;2024-01-10T10:52:18;22.17;;;15.87;;
15295;SDS011;7749;49.964;7.890;2024-01-10T10:54:46;32.50;;;17.57;;
15295;SDS011;7749;49.964;7.890;2024-01-10T10:57:16;21.90;;;15.53;;
15295;SDS011;7749;49.964;7.890;2024-01-10T10:59:47;20.73;;;15.80;;
15295;SDS011;7749;49.964;7.890;2024-01-10T11:02:18;27.43;;;16.20;;
15295;SDS011;7749;49.964;7.890;2024-01-10T11:04:55;26.93;;;16.10;;
15295;SDS011;7749;49.964;7.890;2024-01-10T11:07:24;23.43;;;16.50;;
15295;SDS011;7749;49.964;7.890;2024-01-10T11:09:52;19.37;;;15.37;;
15295;SDS011;7749;49.964;7.890;2024-01-10T11:15:21;20.83;;;13.93;;
15295;SDS011;7749;49.964;7.890;2024-01-10T11:18:16;20.50;;;13.63;;
15295;SDS011;7749;49.964;7.890;2024-01-10T11:24:06;21.13;;;14.97;;
15295;SDS011;7749;49.964;7.890;2024-01-10T11:26:39;17.60;;;13.73;;
15295;SDS011;7749;49.964;7.890;2024-01-10T11:29:06;25.63;;;15.73;;
15295;SDS011;7749;49.964;7.890;2024-01-10T11:31:34;25.00;;;15.13;;
15295;SDS011;7749;49.964;7.890;2024-01-10T11:34:01;21.67;;;15.53;;
15295;SDS011;7749;49.964;7.890;2024-01-10T11:36:30;22.37;;;15.30;;
15295;SDS011;7749;49.964;7.890;2024-01-10T11:38:59;23.27;;;13.97;;
15295;SDS011;7749;49.964;7.890;2024-01-10T11:41:33;24.60;;;15.37;;
15295;SDS011;7749;49.964;7.890;2024-01-10T11:46:41;20.53;;;14.70;;
15295;SDS011;7749;49.964;7.890;2024-01-10T11:49:20;18.87;;;14.43;;
15295;SDS011;7749;49.964;7.890;2024-01-10T11:51:49;20.67;;;14.43;;
15295;SDS011;7749;49.964;7.890;2024-01-10T11:54:43;19.40;;;14.67;;
15295;SDS011;7749;49.964;7.890;2024-01-10T11:57:13;21.53;;;14.47;;
15295;SDS011;7749;49.964;7.890;2024-01-10T11:59:46;17.67;;;13.37;;
15295;SDS011;7749;49.964;7.890;2024-01-10T12:02:16;19.20;;;14.73;;
15295;SDS011;7749;49.964;7.890;2024-01-10T12:04:44;17.97;;;13.63;;
15295;SDS011;7749;49.964;7.890;2024-01-10T12:07:15;18.53;;;14.03;;
15295;SDS011;7749;49.964;7.890;2024-01-10T12:09:45;17.37;;;12.87;;
15295;SDS011;7749;49.964;7.890;2024-01-10T12:12:13;16.37;;;13.03;;
15295;SDS011;7749;49.964;7.890;2024-01-10T12:14:41;21.53;;;14.20;;
15295;SDS011;7749;49.964;7.890;2024-01-10T12:17:11;19.77;;;14.10;;
15295;SDS011;7749;49.964;7.890;2024-01-10T12:19:38;18.63;;;14.13;;
15295;SDS011;7749;49.964;7.890;2024-01-10T12:22:06;20.67;;;14.30;;
15295;SDS011;7749;49.964;7.890;2024-01-10T12:24:44;21.43;;;13.93;;
15295;SDS011;7749;49.964;7.890;2024-01-10T12:27:16;17.53;;;14.03;;
15295;SDS011;7749;49.964;7.890;2024-01-10T12:29:47;20.87;;;14.30;;
15295;SDS011;7749;49.964;7.890;2024-01-10T12:32:20;23.40;;;14.70;;
15295;SDS011;7749;49.964;7.890;2024-01-10T12:34:59;16.53;;;13.87;;
15295;SDS011;7749;49.964;7.890;2024-01-10T12:37:31;19.87;;;14.50;;
15295;SDS011;7749;49.964;7.890;2024-01-10T12:39:58;20.83;;;14.33;;
15295;SDS011;7749;49.964;7.890;2024-01-10T12:42:26;17.93;;;14.63;;
15295;SDS011;7749;49.964;7.890;2024-01-10T12:44:54;20.97;;;14.47;;
15295;SDS011;7749;49.964;7.890;2024-01-10T12:47:22;23.37;;;13.80;;
15295;SDS011;7749;49.964;7.890;2024-01-10T12:49:52;19.13;;;14.20;;
15295;SDS011;7749;49.964;7.890;2024-01-10T12:52:21;16.90;;;14.17;;
15295;SDS011;7749;49.964;7.890;2024-01-10T12:54:50;17.27;;;14.57;;
15295;SDS011;7749;49.964;7.890;2024-01-10T12:57:19;18.17;;;15.00;;
15295;SDS011;7749;49.964;7.890;2024-01-10T12:59:47;18.10;;;14.02;;
15295;SDS011;7749;49.964;7.890;2024-01-10T13:02:15;17.77;;;14.25;;
15295;SDS011;7749;49.964;7.890;2024-01-10T13:04:43;15.53;;;13.10;;
15295;SDS011;7749;49.964;7.890;2024-01-10T13:07:10;17.47;;;14.17;;
15295;SDS011;7749;49.964;7.890;2024-01-10T13:09:37;19.13;;;14.73;;
15295;SDS011;7749;49.964;7.890;2024-01-10T13:12:06;16.87;;;14.27;;
15295;SDS011;7749;49.964;7.890;2024-01-10T13:14:34;19.97;;;13.70;;
15295;SDS011;7749;49.964;7.890;2024-01-10T13:17:02;16.87;;;14.03;;
15295;SDS011;7749;49.964;7.890;2024-01-10T13:19:31;23.60;;;14.80;;
15295;SDS011;7749;49.964;7.890;2024-01-10T13:21:58;19.07;;;15.43;;
15295;SDS011;7749;49.964;7.890;2024-01-10T13:24:26;20.60;;;14.73;;
15295;SDS011;7749;49.964;7.890;2024-01-10T13:26:53;27.13;;;17.80;;
15295;SDS011;7749;49.964;7.890;2024-01-10T13:29:21;36.17;;;21.77;;
15295;SDS011;7749;49.964;7.890;2024-01-10T13:31:49;18.37;;;14.40;;
15295;SDS011;7749;49.964;7.890;2024-01-10T13:34:17;17.53;;;13.20;;
15295;SDS011;7749;49.964;7.890;2024-01-10T13:36:44;18.67;;;13.43;;
15295;SDS011;7749;49.964;7.890;2024-01-10T13:39:12;16.73;;;13.87;;
15295;SDS011;7749;49.964;7.890;2024-01-10T13:41:42;19.60;;;13.83;;
15295;SDS011;7749;49.964;7.890;2024-01-10T13:44:10;16.87;;;13.33;;
15295;SDS011;7749;49.964;7.890;2024-01-10T13:46:37;16.97;;;13.37;;
15295;SDS011;7749;49.964;7.890;2024-01-10T13:49:05;17.93;;;13.73;;
15295;SDS011;7749;49.964;7.890;2024-01-10T13:51:32;19.23;;;13.37;;
15295;SDS011;7749;49.964;7.890;2024-01-10T13:54:00;16.80;;;12.73;;
15295;SDS011;7749;49.964;7.890;2024-01-10T13:56:27;19.17;;;13.07;;
15295;SDS011;7749;49.964;7.890;2024-01-10T13:58:57;15.30;;;13.03;;
15295;SDS011;7749;49.964;7.890;2024-01-10T14:01:24;16.47;;;13.40;;
15295;SDS011;7749;49.964;7.890;2024-01-10T14:03:53;16.37;;;13.33;;
15295;SDS011;7749;49.964;7.890;2024-01-10T14:06:20;18.33;;;13.70;;
15295;SDS011;7749;49.964;7.890;2024-01-10T14:08:48;17.77;;;13.30;;
15295;SDS011;7749;49.964;7.890;2024-01-10T14:11:15;17.90;;;13.47;;
15295;SDS011;7749;49.964;7.890;2024-01-10T14:13:43;18.43;;;13.90;;
15295;SDS011;7749;49.964;7.890;2024-01-10T14:16:11;18.80;;;13.70;;
15295;SDS011;7749;49.964;7.890;2024-01-10T14:18:39;19.27;;;14.20;;
15295;SDS011;7749;49.964;7.890;2024-01-10T14:21:07;18.23;;;14.00;;
15295;SDS011;7749;49.964;7.890;2024-01-10T14:23:38;17.57;;;13.07;;
15295;SDS011;7749;49.964;7.890;2024-01-10T14:26:05;17.20;;;13.70;;
15295;SDS011;7749;49.964;7.890;2024-01-10T14:28:33;19.10;;;15.57;;
15295;SDS011;7749;49.964;7.890;2024-01-10T14:31:00;20.33;;;16.33;;
15295;SDS011;7749;49.964;7.890;2024-01-10T14:33:44;22.60;;;15.37;;
15295;SDS011;7749;49.964;7.890;2024-01-10T14:36:12;17.67;;;15.37;;
15295;SDS011;7749;49.964;7.890;2024-01-10T14:38:40;18.67;;;15.43;;
15295;SDS011;7749;49.964;7.890;2024-01-10T14:41:08;17.03;;;14.87;;
15295;SDS011;7749;49.964;7.890;2024-01-10T14:43:36;21.23;;;15.57;;
15295;SDS011;7749;49.964;7.890;2024-01-10T14:46:04;18.20;;;15.17;;
15295;SDS011;7749;49.964;7.890;2024-01-10T14:48:34;19.10;;;15.73;;
15295;SDS011;7749;49.964;7.890;2024-01-10T14:51:11;19.43;;;16.37;;
15295;SDS011;7749;49.964;7.890;2024-01-10T14:53:39;19.00;;;15.80;;